Time;durP1;ratioP1;P1;durP2;ratioP2;P2;SDS_P1;SDS_P2;PMS_P1;PMS_P2;Temp;Humidity;BMP_temperature;BMP_pressure;BME280_temperature;BME280_humidity;BME280_pressure;Samples;Min_cycle;Max_cycle;Signal;HPM_P1;HPM_P2
2021/11/08 00:00:42;;;;;;;0.60;0.60;;;1.00;99.90;;;;;;5032742;28;20209;-80
2021/11/08 00:03:11;;;;;;;0.60;0.60;;;1.00;99.90;;;;;;5032537;28;20578;-80
2021/11/08 00:05:41;;;;;;;0.60;0.60;;;1.00;99.90;;;;;;5032346;28;20598;-80
2021/11/08 00:08:07;;;;;;;0.60;0.60;;;1.00;99.90;;;;;;5032526;28;20248;-80
2021/11/08 00:10:35;;;;;;;0.57;0.57;;;1.00;99.90;;;;;;5032368;28;20224;-81
2021/11/08 00:13:05;;;;;;;0.80;0.80;;;0.90;99.90;;;;;;5033952;28;20254;-82
2021/11/08 00:16:06;;;;;;;0.63;0.63;;;0.90;99.90;;;;;;5035652;28;20569;-80
2021/11/08 00:20:49;;;;;;;0.70;0.70;;;0.80;99.90;;;;;;5054094;28;20201;-79
2021/11/08 00:23:15;;;;;;;0.70;0.70;;;0.80;99.90;;;;;;5036025;28;20579;-79
2021/11/08 00:25:42;;;;;;;0.63;0.63;;;0.80;99.90;;;;;;5035722;28;20204;-79
2021/11/08 00:28:13;;;;;;;0.93;0.93;;;0.70;99.90;;;;;;5053982;28;20593;-80
2021/11/08 00:30:40;;;;;;;0.60;0.60;;;0.70;99.90;;;;;;5055028;28;20202;-79
2021/11/08 00:33:15;;;;;;;0.73;0.73;;;0.70;99.90;;;;;;5035715;28;20209;-80
2021/11/08 00:35:41;;;;;;;0.70;0.70;;;0.70;99.90;;;;;;5035346;28;20224;-80
2021/11/08 00:38:07;;;;;;;0.70;0.70;;;0.70;99.90;;;;;;5035695;28;20202;-81
2021/11/08 00:40:34;;;;;;;0.70;0.70;;;0.70;99.90;;;;;;5035529;28;20291;-81
2021/11/08 00:43:00;;;;;;;0.70;0.70;;;0.70;99.90;;;;;;5034311;28;20225;-80
2021/11/08 00:45:26;;;;;;;0.70;0.70;;;0.60;99.90;;;;;;5035665;28;20198;-80
2021/11/08 00:47:52;;;;;;;0.70;0.70;;;0.60;99.90;;;;;;5035491;28;20223;-80
2021/11/08 00:50:19;;;;;;;0.70;0.70;;;0.50;99.90;;;;;;5053647;28;20210;-81
2021/11/08 00:52:45;;;;;;;0.90;0.90;;;0.50;99.90;;;;;;5034023;28;20209;-81
2021/11/08 00:55:11;;;;;;;0.70;0.70;;;0.40;99.90;;;;;;5034202;28;20201;-81
2021/11/08 00:57:39;;;;;;;0.60;0.60;;;0.40;99.90;;;;;;5033857;28;20213;-85
2021/11/08 01:00:10;;;;;;;0.85;0.85;;;0.40;99.90;;;;;;5035568;28;20198;-80
2021/11/08 01:02:36;;;;;;;0.80;0.80;;;0.40;99.90;;;;;;5020165;28;20581;-79
2021/11/08 01:05:04;;;;;;;0.65;0.65;;;0.40;99.90;;;;;;5053504;28;20193;-80
2021/11/08 01:07:30;;;;;;;0.90;0.90;;;0.30;99.90;;;;;;5035454;28;20290;-80
2021/11/08 01:09:56;;;;;;;0.75;0.75;;;0.30;99.90;;;;;;5035606;28;20623;-80
2021/11/08 01:12:25;;;;;;;0.80;0.80;;;0.30;99.90;;;;;;5051969;28;20229;-80
2021/11/08 01:14:51;;;;;;;0.70;0.70;;;0.20;99.90;;;;;;5035070;28;20215;-80
2021/11/08 01:17:17;;;;;;;0.70;0.70;;;0.20;99.90;;;;;;5035127;28;20213;-80
2021/11/08 01:19:43;;;;;;;0.70;0.70;;;0.10;99.90;;;;;;5034767;28;20209;-80
2021/11/08 01:22:20;;;;;;;0.85;0.85;;;0.10;99.90;;;;;;5034845;28;20217;-80
2021/11/08 01:24:56;;;;;;;0.70;0.70;;;0.10;99.90;;;;;;5052983;28;20201;-80
2021/11/08 01:27:31;;;;;;;0.80;0.80;;;0.00;99.90;;;;;;5034136;28;20593;-81
2021/11/08 01:29:57;;;;;;;0.65;0.65;;;0.00;99.90;;;;;;5036091;28;20204;-80
2021/11/08 01:32:23;;;;;;;0.70;0.70;;;0.00;99.90;;;;;;5054048;28;20301;-81
2021/11/08 01:34:49;;;;;;;0.75;0.75;;;0.00;99.90;;;;;;5034619;28;20344;-80
2021/11/08 01:37:18;;;;;;;0.70;0.70;;;-0.10;99.90;;;;;;5036243;28;20324;-80
2021/11/08 01:39:44;;;;;;;0.70;0.70;;;0.00;99.90;;;;;;5018504;28;20214;-80
2021/11/08 01:42:11;;;;;;;0.70;0.70;;;0.00;99.90;;;;;;5026569;28;20217;-80
2021/11/08 01:44:37;;;;;;;0.70;0.70;;;0.00;99.90;;;;;;5034417;28;20225;-80
2021/11/08 01:47:05;;;;;;;0.60;0.60;;;0.00;99.90;;;;;;5033399;28;20232;-80
2021/11/08 01:49:31;;;;;;;0.80;0.80;;;0.00;99.90;;;;;;5034526;28;20190;-79
2021/11/08 01:51:58;;;;;;;0.70;0.70;;;0.00;99.90;;;;;;5052468;28;20224;-81
2021/11/08 01:54:25;;;;;;;0.73;0.73;;;0.00;99.90;;;;;;5034407;28;20629;-80
2021/11/08 01:56:53;;;;;;;0.80;0.80;;;-0.10;99.90;;;;;;5034501;28;20212;-80
2021/11/08 01:59:19;;;;;;;0.70;0.70;;;-0.10;99.90;;;;;;5034244;28;20294;-80
2021/11/08 02:01:46;;;;;;;0.80;0.80;;;-0.10;99.90;;;;;;5034198;28;20209;-80
2021/11/08 02:04:11;;;;;;;0.60;0.60;;;-0.20;99.90;;;;;;5034539;28;20581;-80
2021/11/08 02:06:38;;;;;;;0.77;0.77;;;-0.20;99.90;;;;;;5052262;28;20246;-80
2021/11/08 02:09:05;;;;;;;0.75;0.75;;;-0.20;99.90;;;;;;5034353;28;20197;-80
2021/11/08 02:11:32;;;;;;;0.90;0.90;;;-0.20;99.90;;;;;;5052182;28;20205;-80
2021/11/08 02:13:58;;;;;;;0.63;0.63;;;-0.20;99.90;;;;;;5033259;28;20669;-79
2021/11/08 02:16:24;;;;;;;0.70;0.70;;;-0.20;99.90;;;;;;5051891;28;20201;-80
2021/11/08 02:18:51;;;;;;;0.70;0.70;;;-0.20;99.90;;;;;;5033779;28;20202;-80
2021/11/08 02:21:17;;;;;;;0.70;0.70;;;-0.20;99.90;;;;;;5035099;28;20267;-79
2021/11/08 02:23:47;;;;;;;0.75;0.75;;;-0.30;99.90;;;;;;5033804;28;20570;-80
2021/11/08 02:26:16;;;;;;;0.70;0.70;;;-0.30;99.90;;;;;;5033026;28;20228;-80
2021/11/08 02:28:47;;;;;;;0.70;0.70;;;-0.20;99.90;;;;;;5051795;28;20197;-79
2021/11/08 02:31:16;;;;;;;0.70;0.70;;;-0.30;99.90;;;;;;5040267;28;20204;-80
2021/11/08 02:33:44;;;;;;;0.70;0.70;;;-0.30;99.90;;;;;;5058015;28;20209;-80
2021/11/08 02:36:10;;;;;;;0.60;0.60;;;-0.30;99.90;;;;;;5035715;28;20265;-80
2021/11/08 02:38:41;;;;;;;0.80;0.80;;;-0.20;99.90;;;;;;5014205;28;20209;-80
2021/11/08 02:41:08;;;;;;;0.70;0.70;;;-0.20;99.90;;;;;;5013664;28;20218;-79
2021/11/08 02:43:35;;;;;;;0.80;0.80;;;-0.20;99.90;;;;;;5015314;28;20253;-80
2021/11/08 02:46:11;;;;;;;0.60;0.60;;;-0.20;99.90;;;;;;5033091;28;20281;-80
2021/11/08 02:48:39;;;;;;;0.70;0.70;;;-0.30;99.90;;;;;;5013903;28;20232;-80
2021/11/08 02:51:11;;;;;;;0.68;0.68;;;-0.30;99.90;;;;;;5013994;28;20210;-80
2021/11/08 02:53:38;;;;;;;0.68;0.68;;;-0.30;99.90;;;;;;5013813;28;20212;-79
2021/11/08 02:56:06;;;;;;;0.70;0.70;;;-0.30;99.90;;;;;;5015052;28;20206;-79
2021/11/08 02:58:33;;;;;;;0.80;0.80;;;-0.30;99.90;;;;;;5013466;28;20202;-80
2021/11/08 03:00:59;;;;;;;0.80;0.80;;;-0.40;99.90;;;;;;5011776;28;20237;-80
2021/11/08 03:03:34;;;;;;;0.73;0.73;;;-0.40;99.90;;;;;;5031335;28;20202;-80
2021/11/08 03:06:06;;;;;;;0.80;0.80;;;-0.40;99.90;;;;;;5013729;28;20240;-80
2021/11/08 03:08:32;;;;;;;0.77;0.77;;;-0.50;99.90;;;;;;5013513;28;20549;-80
2021/11/08 03:10:59;;;;;;;0.77;0.77;;;-0.40;99.90;;;;;;5013651;28;20228;-79
2021/11/08 03:13:26;;;;;;;0.70;0.70;;;-0.40;99.90;;;;;;5014809;28;20202;-79
2021/11/08 03:15:57;;;;;;;0.80;0.80;;;-0.30;99.90;;;;;;5031472;28;20194;-79
2021/11/08 03:18:58;;;;;;;0.70;0.70;;;-0.30;99.90;;;;;;5014549;28;20202;-80
2021/11/08 03:21:19;;;;;;;0.82;0.82;;;-0.20;99.90;;;;;;5027978;28;20677;-79
2021/11/08 03:23:48;;;;;;;0.55;0.55;;;-0.10;99.90;;;;;;5014685;28;20265;-79
2021/11/08 03:26:33;;;;;;;0.80;0.80;;;-0.10;99.90;;;;;;5013528;28;20199;-79
2021/11/08 03:28:59;;;;;;;0.60;0.60;;;-0.10;99.90;;;;;;5013310;28;20236;-80
2021/11/08 03:31:26;;;;;;;0.70;0.70;;;-0.10;99.90;;;;;;5013357;28;20212;-80
2021/11/08 03:33:53;;;;;;;0.80;0.80;;;-0.10;99.90;;;;;;5013589;28;20291;-79
2021/11/08 03:36:18;;;;;;;0.75;0.75;;;0.00;99.90;;;;;;5028217;28;20308;-80
2021/11/08 03:38:45;;;;;;;0.60;0.60;;;0.00;99.90;;;;;;5033277;28;20209;-80
2021/11/08 03:41:11;;;;;;;0.90;0.90;;;0.00;99.90;;;;;;5032746;28;20235;-79
2021/11/08 03:43:37;;;;;;;0.80;0.80;;;-0.10;99.90;;;;;;5051756;28;20577;-79
2021/11/08 03:46:04;;;;;;;0.70;0.70;;;-0.10;99.90;;;;;;5033535;28;20284;-80
2021/11/08 03:48:30;;;;;;;0.73;0.73;;;-0.20;99.90;;;;;;5034141;28;20680;-79
2021/11/08 03:50:56;;;;;;;0.70;0.70;;;-0.20;99.90;;;;;;5038995;28;20232;-79
2021/11/08 03:53:22;;;;;;;0.80;0.80;;;-0.20;99.90;;;;;;5039863;28;20668;-79
2021/11/08 03:55:49;;;;;;;0.70;0.70;;;-0.30;99.90;;;;;;5038244;28;20236;-78
2021/11/08 03:58:15;;;;;;;0.60;0.60;;;-0.30;99.90;;;;;;5053040;28;20240;-79
2021/11/08 04:00:41;;;;;;;0.60;0.60;;;-0.30;99.90;;;;;;5037138;28;20201;-79
2021/11/08 04:03:08;;;;;;;0.70;0.70;;;-0.30;99.90;;;;;;5039802;28;20201;-79
2021/11/08 04:05:37;;;;;;;0.60;0.60;;;-0.30;99.90;;;;;;5036898;28;20679;-79
2021/11/08 04:08:08;;;;;;;0.60;0.60;;;-0.40;99.90;;;;;;5019953;28;20259;-80
2021/11/08 04:10:39;;;;;;;0.80;0.80;;;-0.40;99.90;;;;;;5036741;28;20193;-80
2021/11/08 04:13:06;;;;;;;0.75;0.75;;;-0.50;99.90;;;;;;5036273;28;20197;-80
2021/11/08 04:15:38;;;;;;;0.70;0.70;;;-0.50;99.90;;;;;;5036820;28;20289;-80
2021/11/08 04:18:10;;;;;;;0.70;0.70;;;-0.50;99.90;;;;;;5054010;28;20665;-80
2021/11/08 04:20:39;;;;;;;0.80;0.80;;;-0.50;99.90;;;;;;5035262;28;20254;-80
2021/11/08 04:23:05;;;;;;;0.60;0.60;;;-0.50;99.90;;;;;;5036563;28;20213;-80
2021/11/08 04:25:31;;;;;;;0.68;0.68;;;-0.50;99.90;;;;;;5036712;28;20201;-80
2021/11/08 04:27:57;;;;;;;0.70;0.70;;;-0.50;99.90;;;;;;5035110;28;20208;-80
2021/11/08 04:30:26;;;;;;;0.70;0.70;;;-0.50;99.90;;;;;;5037381;28;20572;-80
2021/11/08 04:35:30;;;;;;;0.60;0.60;;;-0.40;99.90;;;;;;5053587;28;20222;-80
2021/11/08 04:38:37;;;;;;;0.80;0.80;;;-0.30;99.90;;;;;;5054040;28;20205;-80
2021/11/08 04:55:54;;;;;;;0.82;0.82;;;-0.40;99.90;;;;;;5053372;28;20205;-79
2021/11/08 05:25:32;;;;;;;0.63;0.63;;;-0.40;99.90;;;;;;5052871;28;20684;-80
2021/11/08 05:30:35;;;;;;;0.80;0.80;;;-0.30;99.90;;;;;;5052756;28;20572;-81
2021/11/08 05:33:02;;;;;;;0.70;0.70;;;-0.30;99.90;;;;;;5035011;28;20284;-80
2021/11/08 05:35:29;;;;;;;0.70;0.70;;;-0.30;99.90;;;;;;5036047;28;20260;-80
2021/11/08 05:37:56;;;;;;;0.80;0.80;;;-0.20;99.90;;;;;;5035295;28;20214;-81
2021/11/08 05:40:31;;;;;;;0.80;0.80;;;-0.20;99.90;;;;;;5034528;28;20205;-78
2021/11/08 05:42:57;;;;;;;0.70;0.70;;;-0.20;99.90;;;;;;5034511;28;20247;-78
2021/11/08 05:45:25;;;;;;;0.70;0.70;;;-0.10;99.90;;;;;;5034983;28;20206;-78
2021/11/08 05:47:51;;;;;;;0.63;0.63;;;-0.10;99.90;;;;;;5034520;28;20251;-80
2021/11/08 05:50:20;;;;;;;0.70;0.70;;;-0.10;99.90;;;;;;5035878;28;20205;-78
2021/11/08 05:52:51;;;;;;;0.70;0.70;;;-0.10;99.90;;;;;;5017498;28;20289;-79
2021/11/08 05:55:19;;;;;;;0.80;0.80;;;-0.20;99.90;;;;;;5017392;28;20195;-79
2021/11/08 06:49:40;;;;;;;1.45;1.35;;;-0.50;99.90;;;;;;5031714;28;20265;-79
2021/11/08 06:52:12;;;;;;;2.95;2.42;;;-0.50;99.90;;;;;;5016230;28;20671;-79
2021/11/08 06:54:39;;;;;;;0.60;0.60;;;-0.60;99.90;;;;;;5023140;28;20214;-79
2021/11/08 06:57:12;;;;;;;0.90;0.90;;;-0.60;99.90;;;;;;5014676;28;20703;-79
2021/11/08 06:59:38;;;;;;;1.27;1.20;;;-0.60;99.90;;;;;;5013630;28;20670;-79
2021/11/08 07:02:04;;;;;;;0.73;0.73;;;-0.60;99.90;;;;;;5014675;28;20229;-79
2021/11/08 07:04:30;;;;;;;0.90;0.90;;;-0.60;99.90;;;;;;5014599;28;20206;-81
2021/11/08 07:06:56;;;;;;;0.90;0.90;;;-0.60;99.90;;;;;;4999916;28;20194;-79
2021/11/08 07:09:22;;;;;;;0.70;0.70;;;-0.60;99.90;;;;;;5013462;28;20198;-79
2021/11/08 07:11:48;;;;;;;2.60;2.40;;;-0.60;99.90;;;;;;5031188;28;20574;-79
2021/11/08 07:14:15;;;;;;;1.63;1.52;;;-0.60;99.90;;;;;;5013449;28;20296;-79
2021/11/08 07:16:44;;;;;;;1.50;1.40;;;-0.60;99.90;;;;;;5014747;28;20681;-79
2021/11/08 07:19:11;;;;;;;0.70;0.70;;;-0.60;99.90;;;;;;5031409;28;20206;-78
2021/11/08 07:21:37;;;;;;;0.90;0.90;;;-0.60;99.90;;;;;;4997320;28;20223;-79
2021/11/08 07:24:03;;;;;;;0.80;0.80;;;-0.60;99.90;;;;;;5014980;28;20228;-79
2021/11/08 07:26:29;;;;;;;1.20;1.20;;;-0.60;99.90;;;;;;5018280;28;20685;-79
2021/11/08 07:28:56;;;;;;;0.82;0.82;;;-0.50;99.90;;;;;;5017256;28;20213;-80
2021/11/08 07:31:22;;;;;;;1.05;1.05;;;-0.50;99.90;;;;;;5017244;28;20209;-79
2021/11/08 07:33:48;;;;;;;0.98;0.98;;;-0.60;99.90;;;;;;5036353;28;20228;-79
2021/11/08 07:36:14;;;;;;;0.70;0.70;;;-0.60;99.90;;;;;;5036094;28;20696;-79
2021/11/08 07:38:39;;;;;;;0.90;0.90;;;-0.50;99.90;;;;;;5037852;28;20217;-79
2021/11/08 07:41:12;;;;;;;0.93;0.85;;;-0.50;99.90;;;;;;5036927;28;20259;-78
2021/11/08 07:43:39;;;;;;;1.38;1.27;;;-0.40;99.90;;;;;;5037994;28;20216;-79
2021/11/08 07:46:05;;;;;;;0.70;0.70;;;-0.40;99.90;;;;;;5037230;28;20197;-79
2021/11/08 07:48:31;;;;;;;1.13;1.08;;;-0.40;99.90;;;;;;5054487;28;20688;-80
2021/11/08 07:50:57;;;;;;;1.98;1.83;;;-0.40;99.90;;;;;;5054602;28;20205;-80
2021/11/08 07:53:23;;;;;;;0.90;0.90;;;-0.30;99.90;;;;;;5037341;28;20289;-79
2021/11/08 07:55:49;;;;;;;0.70;0.70;;;-0.30;99.90;;;;;;5056150;28;20202;-79
2021/11/08 07:58:15;;;;;;;0.65;0.65;;;-0.30;99.90;;;;;;5038159;28;20202;-80
2021/11/08 08:00:42;;;;;;;0.80;0.80;;;-0.20;99.90;;;;;;5036628;28;20589;-79
2021/11/08 08:03:10;;;;;;;0.70;0.70;;;-0.20;99.90;;;;;;5037500;28;20307;-79
2021/11/08 08:05:36;;;;;;;0.70;0.70;;;-0.10;99.90;;;;;;5036501;28;20665;-79
2021/11/08 08:08:02;;;;;;;0.70;0.70;;;0.00;99.90;;;;;;5054320;28;20198;-79
2021/11/08 08:10:28;;;;;;;0.80;0.80;;;0.00;99.90;;;;;;5037584;28;20209;-78
2021/11/08 08:12:54;;;;;;;0.80;0.80;;;0.10;99.90;;;;;;5037186;28;20649;-79
2021/11/08 08:15:21;;;;;;;0.93;0.93;;;0.20;99.90;;;;;;5037195;28;20217;-80
2021/11/08 08:17:47;;;;;;;0.73;0.73;;;0.20;99.90;;;;;;5045645;28;20703;-80
2021/11/08 08:20:17;;;;;;;1.00;1.00;;;0.20;99.90;;;;;;5050329;28;20209;-79
2021/11/08 08:22:43;;;;;;;0.70;0.70;;;0.20;99.90;;;;;;5045702;28;20201;-79
2021/11/08 08:25:09;;;;;;;0.60;0.60;;;0.10;99.90;;;;;;5036154;28;20213;-80
2021/11/08 08:27:35;;;;;;;0.70;0.70;;;0.10;99.90;;;;;;5027344;28;20198;-78
2021/11/08 08:30:01;;;;;;;0.70;0.70;;;0.00;99.90;;;;;;5036222;28;20279;-79
2021/11/08 08:32:27;;;;;;;0.73;0.73;;;0.00;99.90;;;;;;5035899;28;20220;-79
2021/11/08 08:34:53;;;;;;;0.80;0.80;;;0.00;99.90;;;;;;5036124;28;20573;-79
2021/11/08 08:37:19;;;;;;;0.90;0.90;;;0.00;99.90;;;;;;5035376;28;20250;-79
2021/11/08 08:39:48;;;;;;;1.55;1.25;;;0.00;99.90;;;;;;5053210;28;20221;-79
2021/11/08 08:42:13;;;;;;;0.70;0.70;;;0.00;99.90;;;;;;5036937;28;20213;-79
2021/11/08 08:44:39;;;;;;;0.70;0.70;;;0.00;99.90;;;;;;5036559;28;20227;-79
2021/11/08 08:47:05;;;;;;;0.70;0.70;;;0.00;99.90;;;;;;5053852;28;20590;-79
2021/11/08 08:49:30;;;;;;;0.80;0.80;;;0.00;99.90;;;;;;5036026;28;20206;-80
2021/11/08 08:51:56;;;;;;;0.80;0.80;;;-0.10;99.90;;;;;;5036970;28;20224;-79
2021/11/08 08:54:22;;;;;;;1.45;1.35;;;-0.10;99.90;;;;;;5037077;28;20223;-79
2021/11/08 08:56:49;;;;;;;2.28;1.83;;;-0.20;99.90;;;;;;5035343;28;20197;-80
2021/11/08 08:59:18;;;;;;;1.52;1.42;;;-0.30;99.90;;;;;;5036912;28;20228;-79
2021/11/08 09:01:44;;;;;;;0.80;0.80;;;-0.30;99.90;;;;;;5036556;28;20214;-80
2021/11/08 09:04:09;;;;;;;0.70;0.70;;;-0.30;99.90;;;;;;5034534;28;20209;-79
2021/11/08 09:06:35;;;;;;;0.80;0.80;;;-0.30;99.90;;;;;;5034015;28;20672;-79
2021/11/08 09:09:01;;;;;;;0.80;0.80;;;-0.40;99.90;;;;;;5035475;28;20225;-79
2021/11/08 09:11:27;;;;;;;0.80;0.80;;;-0.40;99.90;;;;;;5033726;28;20213;-79
2021/11/08 09:13:53;;;;;;;1.55;1.45;;;-0.10;99.90;;;;;;5036568;28;20759;-79
2021/11/08 09:16:19;;;;;;;4.43;2.72;;;0.30;99.90;;;;;;5036538;28;20218;-79
2021/11/08 09:18:51;;;;;;;0.73;0.73;;;0.60;99.90;;;;;;5036298;28;20209;-79
2021/11/08 09:21:19;;;;;;;0.77;0.77;;;0.80;99.90;;;;;;5036846;28;20287;-79
2021/11/08 09:23:46;;;;;;;0.70;0.70;;;0.90;99.90;;;;;;5035128;28;20661;-79
2021/11/08 09:26:13;;;;;;;0.80;0.80;;;0.90;99.90;;;;;;5035119;28;20275;-79
2021/11/08 09:28:39;;;;;;;0.65;0.65;;;0.80;99.90;;;;;;5035714;28;20775;-79
2021/11/08 09:31:05;;;;;;;1.17;1.17;;;0.90;99.90;;;;;;5034847;28;20204;-78
2021/11/08 09:33:33;;;;;;;0.80;0.80;;;0.90;99.90;;;;;;5034827;28;20197;-79
2021/11/08 09:36:05;;;;;;;1.67;1.55;;;1.00;99.90;;;;;;5052547;28;20712;-80
2021/11/08 09:38:47;;;;;;;0.90;0.90;;;1.20;99.90;;;;;;5033528;28;20251;-80
2021/11/08 09:41:14;;;;;;;0.70;0.70;;;1.40;99.90;;;;;;5052331;28;20216;-80
2021/11/08 09:43:40;;;;;;;0.60;0.60;;;1.50;99.90;;;;;;5034559;28;20198;-79
2021/11/08 09:46:07;;;;;;;0.70;0.70;;;1.60;99.90;;;;;;5034408;28;20724;-79
2021/11/08 09:48:37;;;;;;;0.80;0.80;;;1.50;99.90;;;;;;5035214;28;20280;-80
2021/11/08 09:51:04;;;;;;;0.70;0.70;;;1.70;99.90;;;;;;5035401;28;20205;-79
2021/11/08 09:53:31;;;;;;;0.57;0.57;;;1.90;99.90;;;;;;5052139;28;20672;-79
2021/11/08 09:55:58;;;;;;;0.80;0.80;;;1.90;99.90;;;;;;5034931;28;20288;-79
2021/11/08 09:58:24;;;;;;;0.70;0.70;;;2.00;99.90;;;;;;5035594;28;20556;-79
2021/11/08 10:00:55;;;;;;;0.60;0.60;;;2.00;99.90;;;;;;5035374;28;20196;-80
2021/11/08 10:03:24;;;;;;;0.60;0.60;;;2.10;99.90;;;;;;5035189;28;20245;-79
2021/11/08 10:05:52;;;;;;;0.60;0.60;;;2.10;99.90;;;;;;5025275;28;20208;-79
2021/11/08 10:08:21;;;;;;;0.60;0.60;;;2.10;99.90;;;;;;5034005;28;20197;-79
2021/11/08 10:10:48;;;;;;;0.60;0.60;;;2.00;99.90;;;;;;5033548;28;20281;-81
2021/11/08 10:13:18;;;;;;;0.70;0.70;;;2.00;99.90;;;;;;5051278;28;20292;-82
2021/11/08 10:15:48;;;;;;;0.60;0.60;;;1.90;99.90;;;;;;5035444;28;20561;-81
2021/11/08 10:18:16;;;;;;;0.70;0.70;;;1.90;99.90;;;;;;5034499;28;20684;-81
2021/11/08 10:20:45;;;;;;;0.68;0.68;;;1.90;99.90;;;;;;5034331;28;20205;-82
2021/11/08 10:23:14;;;;;;;0.70;0.70;;;2.00;99.90;;;;;;5051717;28;20217;-82
2021/11/08 10:25:41;;;;;;;0.60;0.60;;;2.20;99.90;;;;;;5033464;28;20627;-82
2021/11/08 10:28:23;;;;;;;0.60;0.60;;;2.40;99.90;;;;;;5034727;28;20296;-81
2021/11/08 10:30:58;;;;;;;0.60;0.60;;;2.40;99.90;;;;;;5033589;28;20645;-82
2021/11/08 10:33:33;;;;;;;0.80;0.80;;;2.50;99.90;;;;;;5033577;28;20201;-82
2021/11/08 10:36:15;;;;;;;0.60;0.60;;;2.70;99.90;;;;;;5019153;28;20264;-81
2021/11/08 10:38:46;;;;;;;0.80;0.80;;;2.80;99.90;;;;;;5031398;28;20665;-82
2021/11/08 10:41:25;;;;;;;0.65;0.65;;;2.90;99.90;;;;;;5013738;28;20290;-82
2021/11/08 10:43:54;;;;;;;0.60;0.60;;;3.00;99.90;;;;;;5030308;28;20205;-82
2021/11/08 10:46:31;;;;;;;1.67;1.02;;;2.90;99.90;;;;;;5015628;28;20209;-82
2021/11/08 10:49:03;;;;;;;0.50;0.50;;;2.70;99.90;;;;;;5013974;28;20201;-81
2021/11/08 10:51:30;;;;;;;0.70;0.70;;;2.50;99.90;;;;;;5013601;28;20603;-81
2021/11/08 10:53:59;;;;;;;0.80;0.80;;;2.40;99.90;;;;;;5013850;28;20288;-82
2021/11/08 10:56:30;;;;;;;0.70;0.70;;;2.50;99.90;;;;;;5013544;28;20348;-81
2021/11/08 10:58:59;;;;;;;0.60;0.60;;;2.70;99.90;;;;;;5013197;28;20233;-80
2021/11/08 11:01:28;;;;;;;0.60;0.60;;;2.80;99.90;;;;;;5013392;28;20206;-79
2021/11/08 11:03:56;;;;;;;0.50;0.50;;;3.10;99.90;;;;;;5013943;28;20664;-80
2021/11/08 11:06:34;;;;;;;1.38;1.27;;;3.30;99.90;;;;;;5013395;28;20292;-80
2021/11/08 11:09:02;;;;;;;0.70;0.70;;;3.50;99.90;;;;;;5013707;28;20206;-81
2021/11/08 11:11:28;;;;;;;0.52;0.52;;;3.40;99.90;;;;;;5014675;28;20296;-81
2021/11/08 11:13:55;;;;;;;0.60;0.60;;;3.30;99.90;;;;;;5013574;28;20214;-82
2021/11/08 11:16:50;;;;;;;0.70;0.70;;;3.20;99.90;;;;;;5031102;28;20209;-80
2021/11/08 11:19:18;;;;;;;0.70;0.70;;;3.10;99.90;;;;;;5010968;28;20213;-80
2021/11/08 11:21:59;;;;;;;0.60;0.60;;;3.20;99.90;;;;;;5016216;28;20209;-81
2021/11/08 11:24:47;;;;;;;0.52;0.52;;;3.20;99.90;;;;;;5013586;28;20194;-82
2021/11/08 11:27:28;;;;;;;0.60;0.60;;;3.00;99.90;;;;;;5013462;28;20238;-82
2021/11/08 11:30:17;;;;;;;0.70;0.70;;;2.80;99.90;;;;;;5031040;28;20630;-81
2021/11/08 11:32:43;;;;;;;0.50;0.50;;;2.80;99.90;;;;;;4997543;28;20714;-81
2021/11/08 11:35:15;;;;;;;0.60;0.60;;;2.80;99.90;;;;;;5021741;28;20226;-81
2021/11/08 11:38:01;;;;;;;0.70;0.70;;;2.70;99.90;;;;;;5032360;28;20225;-83
2021/11/08 11:40:36;;;;;;;0.60;0.60;;;2.80;99.90;;;;;;5033018;28;20668;-81
2021/11/08 11:43:06;;;;;;;0.57;0.57;;;3.10;99.90;;;;;;5033121;28;20703;-82
2021/11/08 11:45:45;;;;;;;0.60;0.60;;;3.30;99.90;;;;;;5032823;28;20250;-82
2021/11/08 11:48:11;;;;;;;0.60;0.60;;;3.40;99.90;;;;;;5032967;28;20193;-80
2021/11/08 11:50:37;;;;;;;0.73;0.73;;;3.50;99.90;;;;;;5033011;28;20206;-81
2021/11/08 11:53:05;;;;;;;0.60;0.60;;;3.30;99.90;;;;;;5033123;28;20678;-81
2021/11/08 11:55:33;;;;;;;0.60;0.60;;;3.20;99.90;;;;;;5045735;28;20244;-82
2021/11/08 11:58:01;;;;;;;0.50;0.50;;;2.90;99.90;;;;;;5033719;28;20209;-81
2021/11/08 12:00:29;;;;;;;0.60;0.60;;;2.60;99.90;;;;;;5034103;28;20252;-81
2021/11/08 12:02:57;;;;;;;0.70;0.70;;;2.40;99.90;;;;;;5031275;28;20209;-81
2021/11/08 12:05:23;;;;;;;0.60;0.60;;;2.20;99.90;;;;;;5032225;28;20288;-81
2021/11/08 12:07:51;;;;;;;0.55;0.55;;;2.10;99.90;;;;;;5032846;28;20197;-81
2021/11/08 12:10:18;;;;;;;0.50;0.50;;;2.00;99.90;;;;;;5034374;28;20255;-81
2021/11/08 12:12:44;;;;;;;0.65;0.65;;;2.10;99.90;;;;;;5036392;28;20210;-81
2021/11/08 12:15:12;;;;;;;0.65;0.65;;;2.00;99.90;;;;;;5037083;28;20721;-81
2021/11/08 12:17:46;;;;;;;0.60;0.60;;;1.90;99.90;;;;;;5036201;28;20216;-81
2021/11/08 12:20:24;;;;;;;0.60;0.60;;;1.80;99.90;;;;;;5048917;28;20494;-82
2021/11/08 12:22:52;;;;;;;0.60;0.60;;;1.80;99.90;;;;;;5041087;28;20225;-81
2021/11/08 12:25:21;;;;;;;0.60;0.60;;;1.80;99.90;;;;;;5036352;28;20584;-81
2021/11/08 12:27:48;;;;;;;0.80;0.80;;;1.90;99.90;;;;;;5035128;28;20281;-81
2021/11/08 12:30:18;;;;;;;0.60;0.60;;;1.80;99.90;;;;;;5036350;28;20255;-80
2021/11/08 12:32:56;;;;;;;0.55;0.55;;;1.40;99.90;;;;;;5053093;28;20613;-81
2021/11/08 12:35:36;;;;;;;0.55;0.55;;;1.20;99.90;;;;;;5035787;28;20229;-81
2021/11/08 12:38:21;;;;;;;0.73;0.73;;;1.00;99.90;;;;;;5036169;28;20240;-81
2021/11/08 12:40:49;;;;;;;0.70;0.70;;;0.70;99.90;;;;;;5035840;28;20209;-81
2021/11/08 12:43:26;;;;;;;0.60;0.60;;;0.60;99.90;;;;;;5037222;28;20214;-81
2021/11/08 12:45:52;;;;;;;0.80;0.80;;;0.50;99.90;;;;;;5036008;28;20684;-81
2021/11/08 12:48:18;;;;;;;0.70;0.70;;;0.50;99.90;;;;;;5036122;28;20264;-81
2021/11/08 12:50:53;;;;;;;0.65;0.65;;;0.50;99.90;;;;;;5046626;28;20296;-81
2021/11/08 12:53:38;;;;;;;0.80;0.80;;;0.40;99.90;;;;;;5041040;28;20203;-81
2021/11/08 12:56:21;;;;;;;0.68;0.68;;;0.20;99.90;;;;;;5035824;28;20205;-81
2021/11/08 12:58:52;;;;;;;0.60;0.60;;;0.10;99.90;;;;;;5035651;28;20271;-81
2021/11/08 13:01:21;;;;;;;0.50;0.50;;;0.10;99.90;;;;;;5035361;28;20676;-80
2021/11/08 13:03:52;;;;;;;0.60;0.60;;;0.00;99.90;;;;;;5035489;28;20324;-81
2021/11/08 13:06:26;;;;;;;0.70;0.70;;;0.00;99.90;;;;;;5035474;28;20732;-81
2021/11/08 13:09:06;;;;;;;0.60;0.60;;;0.00;99.90;;;;;;5035623;28;20625;-80
2021/11/08 13:11:37;;;;;;;0.70;0.70;;;0.00;99.90;;;;;;5035257;28;20235;-81
2021/11/08 13:14:05;;;;;;;0.73;0.73;;;-0.10;99.90;;;;;;5034536;28;20205;-81
2021/11/08 13:16:41;;;;;;;0.60;0.60;;;-0.10;99.90;;;;;;5034985;28;20236;-81
2021/11/08 13:19:13;;;;;;;0.70;0.70;;;-0.10;99.90;;;;;;5036754;28;20288;-80
2021/11/08 13:21:39;;;;;;;0.70;0.70;;;-0.20;99.90;;;;;;5034260;28;20661;-81
2021/11/08 13:24:07;;;;;;;0.70;0.70;;;-0.30;99.90;;;;;;5035395;28;20293;-81
2021/11/08 13:26:33;;;;;;;0.60;0.60;;;-0.30;99.90;;;;;;5034949;28;20267;-80
2021/11/08 13:29:00;;;;;;;0.60;0.60;;;-0.40;99.90;;;;;;5035173;28;20664;-80
2021/11/08 13:31:27;;;;;;;0.70;0.70;;;-0.50;99.90;;;;;;5034672;28;20209;-80
2021/11/08 13:33:56;;;;;;;0.60;0.60;;;-0.60;99.90;;;;;;5035374;28;20685;-80
2021/11/08 13:36:22;;;;;;;0.60;0.60;;;-0.60;99.90;;;;;;5034632;28;20221;-81
2021/11/08 13:38:54;;;;;;;0.70;0.70;;;-0.50;99.90;;;;;;5035201;28;20323;-80
2021/11/08 13:41:30;;;;;;;0.80;0.80;;;-0.50;99.90;;;;;;5034538;28;20205;-81
2021/11/08 13:44:05;;;;;;;0.70;0.70;;;-0.60;99.90;;;;;;5052878;28;20248;-81
2021/11/08 13:46:37;;;;;;;0.75;0.75;;;-0.60;99.90;;;;;;5034531;28;20534;-80
2021/11/08 13:49:09;;;;;;;0.70;0.70;;;-0.70;99.90;;;;;;5035009;28;20216;-81
2021/11/08 13:51:44;;;;;;;0.80;0.80;;;-0.70;99.90;;;;;;5034420;28;20552;-81
2021/11/08 13:54:16;;;;;;;0.80;0.80;;;-0.70;99.90;;;;;;5034901;28;20247;-81
2021/11/08 13:56:52;;;;;;;0.77;0.77;;;-0.70;99.90;;;;;;5034283;28;20201;-81
2021/11/08 13:59:31;;;;;;;0.70;0.70;;;-0.60;99.90;;;;;;5034487;28;20548;-81
2021/11/08 14:02:01;;;;;;;0.80;0.80;;;-0.70;99.90;;;;;;5034202;28;20300;-83
2021/11/08 14:04:46;;;;;;;0.80;0.80;;;-0.80;99.90;;;;;;5050981;28;20213;-81
2021/11/08 14:07:12;;;;;;;0.73;0.73;;;-0.80;99.90;;;;;;5051970;28;20212;-81
2021/11/08 14:09:42;;;;;;;0.60;0.60;;;-0.90;99.90;;;;;;5034409;28;20574;-82
2021/11/08 14:12:11;;;;;;;0.80;0.80;;;-0.90;99.90;;;;;;5035597;28;20324;-82
2021/11/08 14:14:38;;;;;;;0.80;0.80;;;-1.00;99.90;;;;;;5034204;28;20201;-81
2021/11/08 14:17:25;;;;;;;2.22;1.08;;;-1.00;99.90;;;;;;5034482;28;20664;-82
2021/11/08 14:20:09;;;;;;;0.77;0.77;;;-1.10;99.90;;;;;;5020706;28;20675;-81
2021/11/08 14:22:37;;;;;;;0.82;0.82;;;-1.10;99.90;;;;;;5032442;28;20684;-81
2021/11/08 14:25:07;;;;;;;0.80;0.80;;;-1.20;99.90;;;;;;5034385;28;20580;-80
2021/11/08 14:27:35;;;;;;;0.70;0.70;;;-1.20;99.90;;;;;;5051977;28;20671;-81
2021/11/08 14:30:21;;;;;;;0.70;0.70;;;-1.20;99.90;;;;;;5034016;28;20217;-81
2021/11/08 14:32:50;;;;;;;0.60;0.60;;;-1.30;99.90;;;;;;5034320;28;20519;-81
2021/11/08 14:35:18;;;;;;;0.52;0.52;;;-1.30;99.90;;;;;;5042331;28;20262;-81
2021/11/08 14:37:58;;;;;;;0.70;0.70;;;-1.40;99.90;;;;;;5014148;28;20202;-81
2021/11/08 14:40:36;;;;;;;0.85;0.85;;;-1.40;99.90;;;;;;5014829;28;20209;-81
2021/11/08 14:43:21;;;;;;;0.65;0.65;;;-1.40;99.90;;;;;;5032432;28;20213;-81
2021/11/08 14:46:01;;;;;;;0.80;0.80;;;-1.40;99.90;;;;;;5016374;28;20202;-80